Time;durP1;ratioP1;P1;durP2;ratioP2;P2;SDS_P1;SDS_P2;PMS_P1;PMS_P2;Temp;Humidity;BMP_temperature;BMP_pressure;BME280_temperature;BME280_humidity;BME280_pressure;Samples;Min_cycle;Max_cycle;Signal;HPM_P1;HPM_P2
2021/08/09 00:01:36;;;;;;;5.05;1.10;;;16.90;77.20;;;;;;5095245;28;20803;-85
2021/08/09 00:04:03;;;;;;;3.22;1.10;;;16.90;76.70;;;;;;5095440;28;20023;-85
2021/08/09 00:06:29;;;;;;;4.70;1.33;;;17.00;76.40;;;;;;5112970;28;20035;-87
2021/08/09 00:08:55;;;;;;;5.60;1.10;;;16.90;76.70;;;;;;5095111;28;20083;-85
2021/08/09 00:11:20;;;;;;;5.30;1.35;;;17.00;77.00;;;;;;5112910;28;20066;-85
2021/08/09 00:13:47;;;;;;;4.70;1.48;;;16.90;76.90;;;;;;5113415;28;20034;-85
2021/08/09 00:16:13;;;;;;;5.30;1.30;;;16.90;77.30;;;;;;5095058;28;20063;-85
2021/08/09 00:18:42;;;;;;;3.55;0.98;;;17.00;77.20;;;;;;5113164;28;20384;-85
2021/08/09 00:21:08;;;;;;;4.75;1.27;;;17.00;77.80;;;;;;5112582;28;20019;-86
2021/08/09 00:23:34;;;;;;;6.13;1.30;;;17.00;77.10;;;;;;5113812;28;20139;-86
2021/08/09 00:25:59;;;;;;;3.67;1.10;;;17.00;77.80;;;;;;5114215;28;20107;-87
2021/08/09 00:28:25;;;;;;;5.80;1.50;;;17.10;77.50;;;;;;5095115;28;20164;-88
2021/08/09 00:30:51;;;;;;;3.45;1.45;;;17.10;77.40;;;;;;5094074;28;20051;-86
2021/08/09 00:33:16;;;;;;;5.93;1.25;;;17.10;76.80;;;;;;5094815;28;20038;-89
2021/08/09 00:35:42;;;;;;;5.97;1.30;;;17.00;77.00;;;;;;5094093;28;20024;-87
2021/08/09 00:38:08;;;;;;;4.05;1.23;;;17.00;78.50;;;;;;5094021;28;20032;-86
2021/08/09 00:40:33;;;;;;;5.63;1.40;;;17.00;77.40;;;;;;5095128;28;20020;-85
2021/08/09 00:42:59;;;;;;;4.10;1.10;;;16.90;76.80;;;;;;5108390;28;20472;-86
2021/08/09 00:45:25;;;;;;;6.03;1.52;;;16.90;77.40;;;;;;5112417;28;20031;-88
2021/08/09 00:47:51;;;;;;;3.28;1.30;;;16.90;77.70;;;;;;5093824;28;20535;-89
2021/08/09 00:50:17;;;;;;;4.93;1.38;;;16.80;77.70;;;;;;5093740;28;20110;-87
2021/08/09 00:52:43;;;;;;;4.00;0.90;;;16.80;78.30;;;;;;5094804;28;20108;-87
2021/08/09 00:55:08;;;;;;;2.75;1.10;;;16.70;78.40;;;;;;5094560;28;20022;-87
2021/08/09 00:57:34;;;;;;;5.00;1.30;;;16.70;78.10;;;;;;5112444;28;20039;-88
2021/08/09 01:00:02;;;;;;;4.50;1.10;;;16.70;77.60;;;;;;5093814;28;20439;-88
2021/08/09 01:02:28;;;;;;;4.43;1.35;;;16.70;79.10;;;;;;5093756;28;20508;-87
2021/08/09 01:04:53;;;;;;;4.53;1.30;;;16.70;78.70;;;;;;5093801;28;20032;-87
2021/08/09 01:07:21;;;;;;;5.00;1.15;;;16.70;78.60;;;;;;5094781;28;20472;-86
2021/08/09 01:09:55;;;;;;;4.00;1.02;;;16.70;79.90;;;;;;5112108;28;20111;-88
2021/08/09 01:12:35;;;;;;;4.20;1.40;;;16.70;79.40;;;;;;5093470;28;20123;-88
2021/08/09 01:15:10;;;;;;;3.40;1.17;;;16.80;79.50;;;;;;5093342;28;20449;-87
2021/08/09 01:17:41;;;;;;;5.38;1.55;;;16.80;78.90;;;;;;5093873;28;20031;-87
2021/08/09 01:20:40;;;;;;;5.05;1.35;;;16.80;79.20;;;;;;5077452;28;20034;-88
2021/08/09 01:23:25;;;;;;;4.20;1.20;;;16.80;79.10;;;;;;5078340;28;20388;-88
2021/08/09 01:25:57;;;;;;;4.25;1.63;;;16.80;79.10;;;;;;5100699;28;20033;-87
2021/08/09 01:28:27;;;;;;;5.53;1.48;;;16.80;78.80;;;;;;5101085;28;20023;-87
2021/08/09 01:30:55;;;;;;;3.38;1.30;;;16.80;80.30;;;;;;5118631;27;20063;-88
2021/08/09 01:33:23;;;;;;;5.47;1.42;;;16.80;79.30;;;;;;5100429;28;20027;-88
2021/08/09 01:35:53;;;;;;;6.20;1.88;;;16.80;79.00;;;;;;5118713;28;20132;-90
2021/08/09 01:38:22;;;;;;;6.05;1.30;;;16.80;80.00;;;;;;5100915;27;20135;-89
2021/08/09 01:40:48;;;;;;;3.97;1.30;;;16.80;79.00;;;;;;5119141;27;20106;-87
2021/08/09 01:43:15;;;;;;;2.63;0.93;;;16.90;79.40;;;;;;5116959;28;20024;-88
2021/08/09 01:45:42;;;;;;;5.03;1.38;;;16.90;79.40;;;;;;5100212;28;20122;-87
2021/08/09 01:48:09;;;;;;;3.60;1.13;;;16.90;79.30;;;;;;5118353;28;20031;-88
2021/08/09 01:50:35;;;;;;;5.38;1.20;;;16.90;79.90;;;;;;5099944;28;20051;-87
2021/08/09 01:53:02;;;;;;;4.45;1.50;;;16.90;79.40;;;;;;5100264;28;20097;-87
2021/08/09 01:55:28;;;;;;;4.22;1.50;;;16.90;79.20;;;;;;5100821;28;20027;-87
2021/08/09 01:57:54;;;;;;;6.20;1.58;;;16.90;79.40;;;;;;5099997;28;20023;-88
2021/08/09 02:00:21;;;;;;;5.68;1.95;;;16.90;80.80;;;;;;5099992;28;20228;-85
2021/08/09 02:02:48;;;;;;;5.65;1.67;;;16.90;80.20;;;;;;5118371;27;20051;-84
2021/08/09 02:05:16;;;;;;;5.85;1.65;;;16.90;80.10;;;;;;5118612;27;20035;-86
2021/08/09 02:07:44;;;;;;;4.30;1.30;;;16.90;80.20;;;;;;5100448;28;20020;-85
2021/08/09 02:10:22;;;;;;;5.38;1.73;;;16.80;80.60;;;;;;5118934;27;20023;-86
2021/08/09 02:13:13;;;;;;;4.80;1.20;;;16.80;80.00;;;;;;5099002;28;20085;-85
2021/08/09 02:15:50;;;;;;;4.88;1.30;;;16.80;80.00;;;;;;5099599;27;20043;-86
2021/08/09 02:18:46;;;;;;;3.47;1.20;;;16.80;81.30;;;;;;5118236;27;20491;-85
2021/08/09 02:21:18;;;;;;;4.22;1.15;;;16.80;80.70;;;;;;5089177;27;20044;-87
2021/08/09 02:23:51;;;;;;;3.30;1.40;;;16.70;80.60;;;;;;5099578;27;20496;-86
2021/08/09 02:26:25;;;;;;;4.43;1.40;;;16.70;80.10;;;;;;5099649;28;20034;-84
2021/08/09 02:28:54;;;;;;;4.75;1.50;;;16.70;81.10;;;;;;5100016;28;20050;-84
2021/08/09 02:31:22;;;;;;;3.65;1.13;;;16.70;81.10;;;;;;5100221;28;20031;-85
2021/08/09 02:33:48;;;;;;;3.70;1.40;;;16.70;81.40;;;;;;5118060;28;20024;-85
2021/08/09 02:36:14;;;;;;;3.30;1.30;;;16.70;82.30;;;;;;5095940;28;20027;-84
2021/08/09 02:38:41;;;;;;;6.53;1.40;;;16.60;81.40;;;;;;5096675;28;20072;-86
2021/08/09 02:41:07;;;;;;;4.57;1.50;;;16.60;82.10;;;;;;5115148;28;20031;-84
2021/08/09 02:43:35;;;;;;;3.83;1.25;;;16.60;81.80;;;;;;5115503;28;20035;-85
2021/08/09 02:46:03;;;;;;;7.07;1.63;;;16.60;81.40;;;;;;5096616;28;20080;-84
2021/08/09 02:48:31;;;;;;;3.88;1.63;;;16.60;81.50;;;;;;5096070;28;20122;-84
2021/08/09 02:50:56;;;;;;;4.43;1.40;;;16.60;82.10;;;;;;5096230;28;20027;-84
2021/08/09 02:53:22;;;;;;;4.50;1.60;;;16.70;81.90;;;;;;5114924;28;20097;-88
2021/08/09 02:55:56;;;;;;;6.03;1.60;;;16.60;81.70;;;;;;5097038;28;20529;-89
2021/08/09 02:58:24;;;;;;;6.45;1.60;;;16.60;83.10;;;;;;5097405;28;20111;-88
2021/08/09 03:00:54;;;;;;;6.72;1.58;;;16.60;82.30;;;;;;5096088;28;20032;-88
2021/08/09 03:03:23;;;;;;;3.10;1.30;;;16.60;81.80;;;;;;5114729;28;20035;-88
2021/08/09 03:05:59;;;;;;;3.03;1.30;;;16.60;82.30;;;;;;5114865;28;20036;-88
2021/08/09 03:08:27;;;;;;;7.32;1.50;;;16.60;82.60;;;;;;5112306;28;20027;-91
2021/08/09 03:10:53;;;;;;;4.32;1.38;;;16.60;83.10;;;;;;5096115;28;20503;-85
2021/08/09 03:13:20;;;;;;;4.22;1.55;;;16.50;82.80;;;;;;5114884;28;20080;-83
2021/08/09 03:15:46;;;;;;;3.47;1.40;;;16.50;83.10;;;;;;5113597;28;20464;-83
2021/08/09 03:18:11;;;;;;;2.55;1.15;;;16.50;82.70;;;;;;5095870;28;20065;-86
2021/08/09 03:20:37;;;;;;;3.25;1.20;;;16.50;82.80;;;;;;5114059;28;20054;-86
2021/08/09 03:23:03;;;;;;;5.18;1.58;;;16.50;83.20;;;;;;5095679;28;20552;-85
2021/08/09 03:25:29;;;;;;;3.67;1.48;;;16.50;82.70;;;;;;5096441;28;20034;-84
2021/08/09 03:27:55;;;;;;;4.15;1.70;;;16.50;82.70;;;;;;5113852;28;20024;-85
2021/08/09 03:30:20;;;;;;;3.63;1.35;;;16.50;83.30;;;;;;5113694;28;20031;-87
2021/08/09 03:32:46;;;;;;;3.97;1.25;;;16.50;82.90;;;;;;5095404;28;20035;-87
2021/08/09 03:35:12;;;;;;;4.30;1.23;;;16.50;82.40;;;;;;5095471;28;20073;-89
2021/08/09 03:37:37;;;;;;;3.13;1.10;;;16.50;83.00;;;;;;5096150;28;20019;-87
2021/08/09 03:40:04;;;;;;;4.90;1.50;;;16.50;82.50;;;;;;5095890;28;20072;-87
2021/08/09 03:42:30;;;;;;;4.53;1.35;;;16.40;82.50;;;;;;5094487;28;20080;-87
2021/08/09 03:44:56;;;;;;;4.10;1.92;;;16.40;82.70;;;;;;5094795;28;20118;-89
2021/08/09 03:47:22;;;;;;;3.78;1.30;;;16.40;84.40;;;;;;5094917;28;20116;-89
2021/08/09 03:49:47;;;;;;;3.60;1.10;;;16.40;83.10;;;;;;5096318;28;20107;-90
2021/08/09 03:52:13;;;;;;;3.63;1.20;;;16.40;84.40;;;;;;5096850;28;20067;-90
2021/08/09 03:54:39;;;;;;;3.35;1.08;;;16.40;83.10;;;;;;5095542;28;20073;-88
2021/08/09 03:57:04;;;;;;;3.28;1.38;;;16.40;83.50;;;;;;5096014;28;20028;-90
2021/08/09 03:59:30;;;;;;;4.30;1.02;;;16.40;83.60;;;;;;5079911;28;20127;-89
2021/08/09 04:01:56;;;;;;;5.95;1.48;;;16.40;84.30;;;;;;5095693;28;20041;-90
2021/08/09 04:04:21;;;;;;;3.42;1.30;;;16.40;83.90;;;;;;5095356;28;20422;-88
2021/08/09 04:06:47;;;;;;;3.03;1.33;;;16.40;82.70;;;;;;5094312;28;20031;-87
2021/08/09 04:09:12;;;;;;;3.28;1.55;;;16.40;83.40;;;;;;5094327;28;20039;-87
2021/08/09 04:11:38;;;;;;;5.80;1.30;;;16.40;83.70;;;;;;5112718;28;20076;-89
2021/08/09 04:14:05;;;;;;;6.05;1.35;;;16.30;83.70;;;;;;5112370;28;20077;-87
2021/08/09 04:16:31;;;;;;;5.20;1.30;;;16.30;83.40;;;;;;5094790;28;20086;-87
2021/08/09 04:18:56;;;;;;;3.88;1.20;;;16.30;83.60;;;;;;5094396;28;20055;-86
2021/08/09 04:21:22;;;;;;;2.75;1.10;;;16.30;83.80;;;;;;5112882;28;20034;-86
2021/08/09 04:23:49;;;;;;;2.20;1.02;;;16.30;83.70;;;;;;5094627;28;20040;-86
2021/08/09 04:26:15;;;;;;;5.07;1.40;;;16.30;83.90;;;;;;5094398;28;20030;-87
2021/08/09 04:28:42;;;;;;;4.53;1.40;;;16.40;83.70;;;;;;5094409;28;20092;-86
2021/08/09 04:31:08;;;;;;;2.78;1.15;;;16.30;83.40;;;;;;5095009;28;20076;-85
2021/08/09 04:33:47;;;;;;;2.65;1.05;;;16.30;83.70;;;;;;5112699;28;20031;-86
2021/08/09 04:36:14;;;;;;;5.00;1.50;;;16.30;83.90;;;;;;5112748;28;20035;-87
2021/08/09 04:38:39;;;;;;;3.67;1.35;;;16.30;83.80;;;;;;5093994;28;20433;-86
2021/08/09 04:41:07;;;;;;;4.32;1.48;;;16.30;84.80;;;;;;5112616;28;20102;-87
2021/08/09 04:43:34;;;;;;;2.28;1.10;;;16.20;84.00;;;;;;5094899;28;20031;-87
2021/08/09 04:46:01;;;;;;;4.38;1.60;;;16.20;84.20;;;;;;5112746;28;20410;-86
2021/08/09 04:48:26;;;;;;;4.03;1.27;;;16.20;84.50;;;;;;5094569;28;20058;-86
2021/08/09 04:50:52;;;;;;;3.30;1.35;;;16.30;84.80;;;;;;5112423;28;20467;-86
2021/08/09 04:53:17;;;;;;;3.38;1.00;;;16.30;84.70;;;;;;5111317;28;20035;-86
2021/08/09 04:55:43;;;;;;;2.63;1.10;;;16.30;84.70;;;;;;5120027;27;20028;-87
2021/08/09 04:58:09;;;;;;;3.85;1.23;;;16.30;85.30;;;;;;5112662;28;20035;-86
2021/08/09 05:00:34;;;;;;;4.57;1.10;;;16.30;84.80;;;;;;5112113;28;20019;-85
2021/08/09 05:03:00;;;;;;;2.65;0.95;;;16.30;84.80;;;;;;5093746;28;20023;-86
2021/08/09 05:05:25;;;;;;;3.72;1.10;;;16.30;84.60;;;;;;5093824;28;20110;-86
2021/08/09 05:07:55;;;;;;;3.88;1.48;;;16.30;84.50;;;;;;5112315;28;20478;-87
2021/08/09 05:10:24;;;;;;;2.95;1.10;;;16.30;84.20;;;;;;5094536;28;20035;-88
2021/08/09 05:12:51;;;;;;;3.50;1.27;;;16.40;84.10;;;;;;5093796;28;20028;-88
2021/08/09 05:15:17;;;;;;;3.35;1.10;;;16.30;84.80;;;;;;5094167;28;20040;-89
2021/08/09 05:17:42;;;;;;;2.95;1.17;;;16.30;85.10;;;;;;5093960;28;20027;-89
2021/08/09 05:20:09;;;;;;;2.90;1.10;;;16.30;84.70;;;;;;5093822;28;20024;-87
2021/08/09 05:22:35;;;;;;;3.38;1.10;;;16.30;84.80;;;;;;5094485;28;20027;-87
2021/08/09 05:25:03;;;;;;;4.13;1.30;;;16.40;85.70;;;;;;5094635;28;20016;-87
2021/08/09 05:27:29;;;;;;;2.03;0.85;;;16.40;84.80;;;;;;5094966;28;20036;-87
2021/08/09 05:29:54;;;;;;;1.80;0.95;;;16.40;85.00;;;;;;5095338;28;20031;-89
2021/08/09 05:32:20;;;;;;;2.67;1.10;;;16.40;84.90;;;;;;5094759;28;20035;-89
2021/08/09 05:34:46;;;;;;;4.18;1.30;;;16.40;85.50;;;;;;5094812;28;20128;-88
2021/08/09 05:37:15;;;;;;;1.85;1.30;;;16.40;85.00;;;;;;5112669;28;20139;-87
2021/08/09 05:39:41;;;;;;;3.40;1.38;;;16.50;84.80;;;;;;5111722;28;20487;-84
2021/08/09 05:42:07;;;;;;;3.15;1.10;;;16.40;85.60;;;;;;5093821;28;20084;-86
2021/08/09 05:44:33;;;;;;;4.78;1.30;;;16.50;85.20;;;;;;5093999;28;20063;-89
2021/08/09 05:46:59;;;;;;;2.35;1.13;;;16.40;84.50;;;;;;5094076;28;20085;-86
2021/08/09 05:49:25;;;;;;;4.85;1.38;;;16.50;85.40;;;;;;5109974;28;20030;-87
2021/08/09 05:51:51;;;;;;;3.15;1.27;;;16.50;85.20;;;;;;5092030;28;20070;-85
2021/08/09 05:54:16;;;;;;;2.65;1.00;;;16.60;85.40;;;;;;5110620;28;20020;-85
2021/08/09 05:56:42;;;;;;;3.08;1.10;;;16.60;85.20;;;;;;5108397;28;20148;-85
2021/08/09 05:59:08;;;;;;;2.63;1.23;;;16.70;85.70;;;;;;5091635;28;20031;-84
2021/08/09 06:01:33;;;;;;;3.25;1.27;;;16.70;85.70;;;;;;5111978;28;20024;-87
2021/08/09 06:03:59;;;;;;;3.50;1.10;;;16.80;85.40;;;;;;5111816;28;20458;-85
2021/08/09 06:06:25;;;;;;;4.25;1.33;;;16.80;85.60;;;;;;5090238;28;20028;-85
2021/08/09 06:08:50;;;;;;;2.75;1.23;;;16.80;85.50;;;;;;5091286;28;20545;-86
2021/08/09 06:11:16;;;;;;;4.22;1.50;;;16.90;85.40;;;;;;5112958;28;20063;-85
2021/08/09 06:13:41;;;;;;;5.00;1.50;;;16.90;85.20;;;;;;5115157;28;20085;-85
2021/08/09 06:16:07;;;;;;;2.65;1.20;;;16.90;84.90;;;;;;5096805;28;20082;-86
2021/08/09 06:18:34;;;;;;;2.38;1.08;;;17.00;85.20;;;;;;5096695;28;20066;-87
2021/08/09 06:21:01;;;;;;;4.55;1.20;;;17.00;85.50;;;;;;5097092;28;20074;-87
2021/08/09 06:23:27;;;;;;;3.10;1.67;;;17.00;85.20;;;;;;5096655;28;20027;-86
2021/08/09 06:25:56;;;;;;;4.47;1.27;;;17.10;85.30;;;;;;5115807;28;20088;-84
2021/08/09 06:28:22;;;;;;;3.55;1.10;;;17.10;85.60;;;;;;5099371;28;20446;-88
2021/08/09 06:30:48;;;;;;;3.70;1.30;;;17.10;85.10;;;;;;5102937;28;20501;-88
2021/08/09 06:33:14;;;;;;;2.53;1.50;;;17.10;84.90;;;;;;5102058;28;20391;-88
2021/08/09 06:35:40;;;;;;;3.20;1.52;;;17.00;85.30;;;;;;5104014;28;20031;-88
2021/08/09 06:38:07;;;;;;;3.05;1.20;;;17.10;85.60;;;;;;5120765;28;20442;-85
2021/08/09 06:40:33;;;;;;;2.47;1.27;;;17.10;85.50;;;;;;5096962;28;20522;-84
2021/08/09 06:43:01;;;;;;;3.60;1.35;;;17.10;85.50;;;;;;5097036;28;20088;-85
2021/08/09 06:45:27;;;;;;;2.50;1.30;;;17.20;85.00;;;;;;5097880;28;20024;-89
2021/08/09 06:47:52;;;;;;;4.05;1.35;;;17.30;84.90;;;;;;5098911;28;20399;-85
2021/08/09 06:50:18;;;;;;;3.55;1.30;;;17.30;84.50;;;;;;5115891;28;20479;-88
2021/08/09 06:52:44;;;;;;;3.58;1.35;;;17.20;84.80;;;;;;5099570;28;20042;-87
2021/08/09 06:55:09;;;;;;;2.17;1.00;;;17.20;85.30;;;;;;5100078;28;20036;-86
2021/08/09 06:57:35;;;;;;;2.63;1.38;;;17.20;85.30;;;;;;5119210;28;20023;-86
2021/08/09 07:00:01;;;;;;;3.58;1.38;;;17.20;85.80;;;;;;5098927;28;20024;-85
2021/08/09 07:02:28;;;;;;;2.70;1.20;;;17.20;85.60;;;;;;5120833;28;20023;-88
2021/08/09 07:04:53;;;;;;;3.78;1.40;;;17.20;86.10;;;;;;5101509;28;20035;-86
2021/08/09 07:07:19;;;;;;;4.35;1.38;;;17.30;85.80;;;;;;5115253;28;20030;-84
2021/08/09 07:09:45;;;;;;;2.70;1.55;;;17.30;85.50;;;;;;5096976;28;20035;-84
2021/08/09 07:12:10;;;;;;;3.92;1.40;;;17.30;86.30;;;;;;5097280;28;20092;-88
2021/08/09 07:14:36;;;;;;;4.38;1.50;;;17.40;85.90;;;;;;5108578;28;20514;-88
2021/08/09 07:17:03;;;;;;;2.95;1.10;;;17.50;86.40;;;;;;5115199;27;20446;-86
2021/08/09 07:19:28;;;;;;;5.15;2.35;;;17.50;85.50;;;;;;5094297;27;20069;-92
2021/08/09 07:21:54;;;;;;;3.95;1.83;;;17.60;85.90;;;;;;5115843;27;20032;-90
2021/08/09 07:24:20;;;;;;;8.38;4.35;;;17.70;85.60;;;;;;5095128;28;20044;-88
2021/08/09 07:26:45;;;;;;;11.52;5.35;;;17.70;85.40;;;;;;5096037;28;20027;-88
2021/08/09 07:29:11;;;;;;;6.32;2.58;;;17.80;85.30;;;;;;5111195;28;20023;-89
2021/08/09 07:31:37;;;;;;;6.53;2.67;;;17.90;85.40;;;;;;5113206;27;20032;-88
2021/08/09 07:34:02;;;;;;;4.60;2.20;;;18.00;85.50;;;;;;5096559;28;20027;-89
2021/08/09 07:36:28;;;;;;;5.43;2.53;;;18.10;85.30;;;;;;5114844;28;20038;-89
2021/08/09 07:38:53;;;;;;;4.32;1.77;;;18.10;84.80;;;;;;5096989;28;20114;-88
2021/08/09 07:41:19;;;;;;;3.67;1.80;;;18.20;84.10;;;;;;5096825;28;20024;-89
2021/08/09 07:43:47;;;;;;;4.15;2.50;;;18.20;84.70;;;;;;5115068;28;20028;-88
2021/08/09 07:46:12;;;;;;;3.75;2.00;;;18.30;84.90;;;;;;5096413;28;20023;-87
2021/08/09 07:48:38;;;;;;;1.90;1.20;;;18.40;84.30;;;;;;5114520;28;20028;-87
2021/08/09 07:51:04;;;;;;;2.55;1.33;;;18.30;83.60;;;;;;5095383;28;20494;-86
2021/08/09 07:53:29;;;;;;;2.30;1.40;;;18.30;83.60;;;;;;5095368;28;20019;-83
2021/08/09 07:55:55;;;;;;;2.85;1.30;;;18.20;83.10;;;;;;5113910;28;20043;-84
2021/08/09 07:58:21;;;;;;;2.60;1.10;;;18.10;83.50;;;;;;5095669;28;20400;-85
2021/08/09 08:00:47;;;;;;;3.30;1.77;;;18.00;83.60;;;;;;5094987;28;20116;-84
2021/08/09 08:03:12;;;;;;;3.55;1.20;;;18.00;83.70;;;;;;5094076;28;20031;-85
2021/08/09 08:05:38;;;;;;;2.30;1.30;;;17.90;83.90;;;;;;5093362;28;20042;-84
2021/08/09 08:08:05;;;;;;;3.28;1.50;;;17.90;83.90;;;;;;5112696;28;20035;-85
2021/08/09 08:10:31;;;;;;;2.10;1.05;;;17.90;84.20;;;;;;5112211;28;20011;-84
2021/08/09 08:12:57;;;;;;;2.40;1.15;;;17.80;84.00;;;;;;5093348;28;20031;-85
2021/08/09 08:15:22;;;;;;;3.60;1.55;;;17.80;85.00;;;;;;5112355;28;20476;-85
2021/08/09 08:17:48;;;;;;;1.30;0.88;;;17.80;85.60;;;;;;5094491;28;20028;-87
2021/08/09 08:20:14;;;;;;;3.05;1.08;;;17.90;85.40;;;;;;5092730;28;20118;-83
2021/08/09 08:22:40;;;;;;;2.38;1.23;;;18.00;85.10;;;;;;5113175;28;20047;-86
2021/08/09 08:25:06;;;;;;;4.45;1.38;;;18.00;85.50;;;;;;5112509;28;20115;-80
2021/08/09 08:27:32;;;;;;;3.85;1.10;;;18.00;86.00;;;;;;5112833;28;20028;-81
2021/08/09 08:29:58;;;;;;;3.78;1.13;;;18.20;86.40;;;;;;5115430;28;20368;-78
2021/08/09 08:32:23;;;;;;;1.67;1.05;;;18.40;86.10;;;;;;5112942;28;20027;-81
2021/08/09 08:34:49;;;;;;;4.55;1.08;;;18.50;85.30;;;;;;5111574;28;20063;-78
2021/08/09 08:37:15;;;;;;;2.60;1.42;;;18.60;86.30;;;;;;5113086;28;20031;-78
2021/08/09 08:39:40;;;;;;;1.83;0.93;;;18.70;86.30;;;;;;5112566;28;20077;-78
2021/08/09 08:42:06;;;;;;;1.85;1.13;;;18.90;85.40;;;;;;5112570;28;20503;-76
2021/08/09 08:44:32;;;;;;;1.90;0.90;;;19.00;84.00;;;;;;5093996;28;20399;-78
2021/08/09 08:46:58;;;;;;;2.83;1.15;;;19.10;83.30;;;;;;5112490;28;20019;-78
2021/08/09 08:49:26;;;;;;;1.60;0.85;;;19.30;83.30;;;;;;5112543;28;20020;-80
2021/08/09 08:51:52;;;;;;;1.30;0.90;;;19.30;82.20;;;;;;5093443;28;20088;-79
2021/08/09 08:54:19;;;;;;;1.55;0.80;;;19.20;79.50;;;;;;5110992;28;20047;-76
2021/08/09 08:56:45;;;;;;;2.92;1.02;;;19.00;81.00;;;;;;5110363;28;20036;-79
2021/08/09 08:59:14;;;;;;;2.55;0.80;;;19.20;82.90;;;;;;5111834;28;20491;-80
2021/08/09 09:01:49;;;;;;;2.08;1.00;;;19.40;81.20;;;;;;5112385;28;20023;-80
2021/08/09 09:04:20;;;;;;;1.90;0.90;;;19.50;81.40;;;;;;5109106;28;20396;-82
2021/08/09 09:06:46;;;;;;;1.85;0.80;;;19.70;81.70;;;;;;5111228;28;20024;-79
2021/08/09 09:09:22;;;;;;;1.48;0.95;;;19.80;79.60;;;;;;5106873;27;20080;-86
2021/08/09 09:11:49;;;;;;;1.30;0.73;;;19.70;78.80;;;;;;5109493;27;20028;-88
2021/08/09 09:14:23;;;;;;;4.43;2.22;;;19.70;78.90;;;;;;5123318;27;20568;-86
2021/08/09 09:16:50;;;;;;;2.63;1.60;;;19.60;79.20;;;;;;5109965;28;20051;-87
2021/08/09 09:19:31;;;;;;;1.63;1.00;;;19.60;79.30;;;;;;5110437;28;20395;-87
2021/08/09 09:21:57;;;;;;;1.75;1.08;;;19.40;79.00;;;;;;5109456;28;20019;-82
2021/08/09 09:24:25;;;;;;;1.98;0.80;;;19.20;78.70;;;;;;5089622;28;20118;-83
2021/08/09 09:27:03;;;;;;;2.15;1.10;;;19.20;79.80;;;;;;5109903;28;20126;-84
2021/08/09 09:29:39;;;;;;;1.25;0.80;;;19.10;80.10;;;;;;5088609;28;20123;-84
2021/08/09 09:32:18;;;;;;;1.60;0.80;;;19.00;79.50;;;;;;5089906;28;20039;-85
2021/08/09 09:34:55;;;;;;;1.77;1.00;;;19.20;80.30;;;;;;5092278;28;20177;-86
2021/08/09 09:37:33;;;;;;;1.65;0.80;;;19.40;79.60;;;;;;5103089;28;20027;-84
2021/08/09 09:40:08;;;;;;;3.83;0.93;;;19.80;80.90;;;;;;5109474;28;20035;-84
2021/08/09 09:42:36;;;;;;;1.95;0.82;;;20.10;77.70;;;;;;5107124;28;20077;-85
2021/08/09 09:45:28;;;;;;;3.85;0.95;;;20.20;77.10;;;;;;5094824;28;20019;-84
2021/08/09 09:48:05;;;;;;;1.38;0.75;;;20.50;78.00;;;;;;5114850;28;20160;-84
2021/08/09 09:50:33;;;;;;;4.10;1.00;;;20.70;77.80;;;;;;5114195;28;20020;-85
2021/08/09 09:53:21;;;;;;;1.05;0.60;;;20.90;77.20;;;;;;5114132;28;20035;-85
2021/08/09 09:55:49;;;;;;;1.92;0.77;;;20.80;73.10;;;;;;5128523;27;20055;-82
2021/08/09 09:58:17;;;;;;;1.38;0.70;;;20.80;75.60;;;;;;5113966;28;20019;-82
2021/08/09 10:00:43;;;;;;;2.05;1.30;;;20.90;73.60;;;;;;5114822;28;20088;-82
2021/08/09 10:03:10;;;;;;;1.10;0.73;;;20.90;74.40;;;;;;5111028;28;20031;-82
2021/08/09 10:05:40;;;;;;;1.50;0.70;;;20.80;72.80;;;;;;5103473;28;20107;-82
2021/08/09 10:08:11;;;;;;;2.25;0.90;;;20.90;73.10;;;;;;5099089;28;20118;-81
2021/08/09 10:10:39;;;;;;;1.30;0.85;;;20.70;73.90;;;;;;5096583;28;20034;-81
2021/08/09 10:13:05;;;;;;;1.58;1.00;;;20.80;72.30;;;;;;5115631;28;20123;-83
2021/08/09 10:15:31;;;;;;;1.88;0.90;;;20.60;73.20;;;;;;5114560;28;20465;-79
2021/08/09 10:17:57;;;;;;;1.40;0.90;;;20.80;74.20;;;;;;5119640;27;20059;-82
2021/08/09 10:20:23;;;;;;;1.30;0.60;;;21.00;73.80;;;;;;5114305;28;20059;-83
2021/08/09 10:23:00;;;;;;;2.10;0.85;;;21.10;72.20;;;;;;5114390;28;20027;-78
2021/08/09 10:25:46;;;;;;;1.15;0.80;;;21.10;71.70;;;;;;5114555;28;20116;-81
2021/08/09 10:28:12;;;;;;;0.90;0.70;;;21.00;71.40;;;;;;5110993;28;20023;-80
2021/08/09 10:30:38;;;;;;;2.53;1.08;;;21.00;72.30;;;;;;5113871;28;20023;-80
2021/08/09 10:33:11;;;;;;;1.30;0.70;;;20.90;71.40;;;;;;5116362;28;20116;-78
2021/08/09 10:35:39;;;;;;;1.52;0.80;;;20.60;72.20;;;;;;5111420;28;20020;-79
2021/08/09 10:38:15;;;;;;;1.27;0.90;;;20.60;73.30;;;;;;5112943;28;20494;-79
2021/08/09 10:40:42;;;;;;;1.38;0.70;;;20.60;73.80;;;;;;5113946;28;20441;-80
2021/08/09 10:43:08;;;;;;;2.17;0.90;;;20.60;72.90;;;;;;5114753;28;20020;-79
2021/08/09 10:45:44;;;;;;;1.27;0.82;;;20.50;72.40;;;;;;5113606;28;20040;-79
2021/08/09 10:48:10;;;;;;;1.92;1.05;;;20.20;73.20;;;;;;5114078;28;20419;-78
2021/08/09 10:50:40;;;;;;;0.95;0.70;;;20.10;74.00;;;;;;5113323;28;20023;-77
2021/08/09 10:53:35;;;;;;;1.80;0.90;;;20.10;74.30;;;;;;5112881;28;20059;-78
2021/08/09 10:56:01;;;;;;;1.40;0.80;;;20.10;75.80;;;;;;5078646;28;20044;-79
2021/08/09 10:58:42;;;;;;;1.15;0.80;;;20.30;75.60;;;;;;5107597;28;20012;-79
2021/08/09 11:01:09;;;;;;;2.95;0.90;;;20.40;75.70;;;;;;5114496;28;20059;-78
2021/08/09 11:03:54;;;;;;;1.42;0.77;;;20.40;74.20;;;;;;5112926;28;20555;-81
2021/08/09 11:06:40;;;;;;;2.28;0.98;;;20.50;74.50;;;;;;5113709;28;20035;-79
2021/08/09 11:09:30;;;;;;;2.22;0.90;;;20.80;74.70;;;;;;5113097;28;20034;-81
2021/08/09 11:12:09;;;;;;;4.07;2.45;;;21.00;73.90;;;;;;5106696;27;20517;-79
2021/08/09 11:15:13;;;;;;;1.92;0.95;;;21.20;72.70;;;;;;5108013;27;20031;-80
2021/08/09 11:17:41;;;;;;;;;;;21.10;70.80;;;;;;5041864;28;20539;-79
2021/08/09 11:20:15;;;;;;;2.20;1.38;;;21.00;70.80;;;;;;5038977;28;19962;-77
2021/08/09 11:22:46;;;;;;;1.88;1.00;;;21.00;72.10;;;;;;5023228;28;20072;-77
2021/08/09 11:25:31;;;;;;;1.45;0.90;;;20.90;70.60;;;;;;5023558;28;20525;-76
2021/08/09 11:27:57;;;;;;;1.80;0.80;;;20.90;71.70;;;;;;5022305;28;20502;-79
2021/08/09 11:30:35;;;;;;;3.45;1.50;;;20.90;71.80;;;;;;5021974;28;20030;-77
2021/08/09 11:33:01;;;;;;;1.40;0.90;;;21.10;72.40;;;;;;5024946;28;20088;-77
2021/08/09 11:35:26;;;;;;;2.70;1.00;;;21.40;73.10;;;;;;5045799;28;20057;-78
2021/08/09 11:38:03;;;;;;;3.08;1.30;;;21.90;72.80;;;;;;5015239;28;20176;-78
2021/08/09 11:40:36;;;;;;;3.17;1.25;;;22.20;72.70;;;;;;5015886;28;20117;-78
2021/08/09 11:43:01;;;;;;;3.78;1.20;;;22.40;71.00;;;;;;5032838;28;20080;-78
2021/08/09 11:45:28;;;;;;;5.65;2.95;;;22.60;71.40;;;;;;5026248;28;20042;-77
2021/08/09 11:47:54;;;;;;;3.92;2.20;;;22.80;70.90;;;;;;5022483;28;20033;-78
2021/08/09 11:50:22;;;;;;;2.45;1.42;;;22.90;70.30;;;;;;5031928;28;20041;-77
2021/08/09 11:52:48;;;;;;;3.00;1.42;;;22.90;68.90;;;;;;5127456;27;20076;-78
2021/08/09 11:55:21;;;;;;;5.32;3.17;;;22.90;69.20;;;;;;5117099;27;20470;-78
2021/08/09 11:57:47;;;;;;;;;;;22.80;69.70;;;;;;5115637;27;20171;-77
2021/08/09 12:00:13;;;;;;;2.70;1.60;;;22.50;68.20;;;;;;5085510;28;20609;-79
2021/08/09 12:03:08;;;;;;;2.25;0.98;;;22.20;69.50;;;;;;5110952;28;20024;-79
2021/08/09 12:05:33;;;;;;;3.15;1.30;;;21.80;70.10;;;;;;5112687;28;20088;-79
2021/08/09 12:08:03;;;;;;;2.97;1.02;;;21.70;72.40;;;;;;5106851;28;20476;-78
2021/08/09 12:10:29;;;;;;;2.08;0.88;;;21.80;72.70;;;;;;5113081;28;20027;-78
2021/08/09 12:12:55;;;;;;;1.48;0.73;;;21.90;72.90;;;;;;5112883;28;20039;-79
2021/08/09 12:15:21;;;;;;;1.35;0.85;;;21.70;71.20;;;;;;5112691;28;20164;-80
2021/08/09 12:18:07;;;;;;;1.13;0.77;;;21.70;71.90;;;;;;5093475;28;20062;-78
2021/08/09 12:20:34;;;;;;;1.38;0.73;;;22.00;71.80;;;;;;5100429;28;20030;-78
2021/08/09 12:23:00;;;;;;;2.72;1.23;;;22.30;72.40;;;;;;5112744;28;20042;-79
2021/08/09 12:25:46;;;;;;;1.25;0.70;;;22.50;70.80;;;;;;5111678;28;20016;-79
2021/08/09 12:28:11;;;;;;;1.25;0.70;;;22.80;70.70;;;;;;5112542;28;20040;-78
2021/08/09 12:30:53;;;;;;;1.30;0.80;;;22.70;67.00;;;;;;5112451;28;20479;-79
2021/08/09 12:33:19;;;;;;;1.13;0.73;;;22.90;68.30;;;;;;5112771;28;20037;-78
2021/08/09 12:35:46;;;;;;;1.25;0.70;;;23.00;66.90;;;;;;5110554;28;20023;-79
2021/08/09 12:38:13;;;;;;;0.98;0.57;;;22.90;64.70;;;;;;5109390;28;20027;-80
2021/08/09 12:40:50;;;;;;;1.65;0.70;;;22.90;64.80;;;;;;5111903;28;20027;-78
2021/08/09 12:43:18;;;;;;;1.10;0.60;;;22.90;62.60;;;;;;5112152;28;20028;-77
2021/08/09 12:45:44;;;;;;;1.52;0.88;;;22.80;63.40;;;;;;5110421;28;20093;-78
2021/08/09 12:48:11;;;;;;;1.50;0.80;;;23.00;64.40;;;;;;5111761;28;20032;-78
2021/08/09 12:50:38;;;;;;;0.98;0.75;;;22.90;62.50;;;;;;5110198;28;20031;-77
2021/08/09 12:53:04;;;;;;;1.00;0.70;;;22.90;63.50;;;;;;5112400;28;20040;-77
2021/08/09 12:55:30;;;;;;;1.95;0.90;;;22.90;62.70;;;;;;5112480;28;20020;-79